| time (UTC) | temp C | wind direction | speed KPH | gust KPH | rain 1hr cm | rain 24hr cm | rain mn cm | humidity % | barometer mb |
| 20260906031021 | 22 | 0 | 0.0 | 0.0 | 0.00 | 0.46 | 0.46 | 95 | 1012.7 |
| 20260906030522 | 22 | 0 | 0.0 | 0.0 | 0.00 | 0.46 | 0.46 | 95 | 1012.7 |
| 20260906030043 | 22 | 0 | 0.0 | 0.0 | 0.00 | 0.46 | 0.46 | 95 | 1012.7 |
| 20260906025525 | 22 | 0 | 0.0 | 0.0 | 0.00 | 0.46 | 0.46 | 95 | 1012.7 |
| 20260906025025 | 22 | 0 | 0.0 | 0.0 | 0.00 | 0.46 | 0.46 | 95 | 1012.7 |
| 20260906024546 | 22 | 0 | 0.0 | 0.0 | 0.00 | 0.46 | 0.46 | 95 | 1012.8 |
| 20260906024023 | 22 | 0 | 0.0 | 0.0 | 0.00 | 0.46 | 0.46 | 95 | 1012.9 |
| 20260906023524 | 22 | 0 | 0.0 | 0.0 | 0.00 | 0.46 | 0.46 | 95 | 1012.8 |
| 20260906023058 | 22 | 0 | 0.0 | 0.0 | 0.00 | 0.46 | 0.46 | 95 | 1012.7 |
| 20260906022525 | 22 | 0 | 0.0 | 0.0 | 0.00 | 0.46 | 0.46 | 95 | 1012.8 |
| 20260906022024 | 22 | 0 | 0.0 | 0.0 | 0.00 | 0.46 | 0.46 | 95 | 1012.8 |
| 20260906021544 | 22 | 0 | 0.0 | 0.0 | 0.00 | 0.46 | 0.46 | 95 | 1012.8 |
| 20260906021024 | 22 | 0 | 0.0 | 0.0 | 0.00 | 0.46 | 0.46 | 95 | 1012.7 |
| 20260906020524 | 22 | 0 | 0.0 | 0.0 | 0.00 | 0.46 | 0.46 | 95 | 1012.7 |
| 20260906020047 | 22 | 0 | 0.0 | 0.0 | 0.00 | 0.46 | 0.46 | 95 | 1012.6 |
| 20260906015522 | 22 | 0 | 0.0 | 0.0 | 0.00 | 0.46 | 0.46 | 95 | 1012.5 |
| 20260906015021 | 22 | 0 | 0.0 | 0.0 | 0.00 | 0.46 | 0.46 | 94 | 1012.4 |
| 20260906014555 | 22 | 0 | 0.0 | 0.0 | 0.00 | 0.46 | 0.46 | 94 | 1012.5 |
| 20260906014024 | 22 | 0 | 0.0 | 0.0 | 0.00 | 0.46 | 0.46 | 94 | 1012.3 |
| 20260906013524 | 22 | 0 | 0.0 | 0.0 | 0.00 | 0.46 | 0.46 | 94 | 1012.2 |
| 20260906013042 | 22 | 0 | 0.0 | 0.0 | 0.00 | 0.46 | 0.46 | 94 | 1012.3 |
| 20260906012524 | 22 | 0 | 0.0 | 0.0 | 0.00 | 0.46 | 0.46 | 94 | 1011.9 |
| 20260906012021 | 22 | 0 | 0.0 | 0.0 | 0.00 | 0.46 | 0.46 | 94 | 1011.9 |
| 20260906011552 | 22 | 0 | 0.0 | 0.0 | 0.00 | 0.46 | 0.46 | 94 | 1011.9 |
| 20260906011023 | 22 | 0 | 0.0 | 0.0 | 0.00 | 0.46 | 0.46 | 94 | 1012.0 |
| 20260906010523 | 22 | 0 | 0.0 | 0.0 | 0.00 | 0.46 | 0.46 | 94 | 1011.9 |
| 20260906010047 | 22 | 0 | 0.0 | 0.0 | 0.00 | 0.46 | 0.46 | 94 | 1011.7 |
| 20260906005527 | 22 | 0 | 0.0 | 0.0 | 0.00 | 0.46 | 0.46 | 94 | 1011.9 |
| 20260906005024 | 22 | 0 | 0.0 | 0.0 | 0.00 | 0.46 | 0.46 | 94 | 1011.8 |
| 20260906004544 | 22 | 0 | 0.0 | 0.0 | 0.00 | 0.46 | 0.46 | 94 | 1012.0 |
| 20260906004031 | 22 | 0 | 0.0 | 0.0 | 0.00 | 0.46 | 0.46 | 94 | 1012.0 |
| 20260906003526 | 22 | 0 | 0.0 | 0.0 | 0.00 | 0.46 | 0.46 | 94 | 1011.9 |
| 20260906003051 | 22 | 0 | 0.0 | 0.0 | 0.00 | 0.46 | 0.46 | 93 | 1012.1 |
| 20260906002522 | 23 | 0 | 0.0 | 0.0 | 0.00 | 0.46 | 0.46 | 93 | 1012.6 |
| 20260906002025 | 23 | 0 | 0.0 | 0.0 | 0.03 | 0.46 | 0.46 | 93 | 1012.6 |
| 20260906001544 | 23 | 0 | 0.0 | 0.0 | 0.03 | 0.46 | 0.46 | 93 | 1012.5 |
| 20260906001019 | 23 | 0 | 0.0 | 0.0 | 0.03 | 0.46 | 0.46 | 93 | 1012.8 |
| 20260906000520 | 23 | 0 | 0.0 | 0.0 | 0.03 | 0.46 | 0.46 | 93 | 1012.8 |
| 20260906000052 | 23 | 0 | 0.0 | 0.0 | 0.03 | 0.46 | 0.46 | 93 | 1012.6 |
| 20260905235527 | 23 | 0 | 0.0 | 0.0 | 0.03 | 0.46 | 0.46 | 92 | 1012.5 |
| 20260905235024 | 23 | 0 | 0.0 | 0.0 | 0.05 | 0.46 | 0.46 | 92 | 1012.9 |
| 20260905234553 | 23 | 0 | 0.0 | 0.0 | 0.05 | 0.46 | 0.46 | 92 | 1012.7 |
| 20260905234023 | 23 | 0 | 0.0 | 0.0 | 0.05 | 0.46 | 0.46 | 92 | 1012.9 |
| 20260905233523 | 23 | 0 | 0.0 | 0.0 | 0.05 | 0.46 | 0.46 | 91 | 1012.8 |
| 20260905233043 | 23 | 0 | 0.0 | 0.0 | 0.05 | 0.46 | 0.46 | 91 | 1012.2 |
| 20260905232522 | 23 | 0 | 0.0 | 0.0 | 0.05 | 0.46 | 0.46 | 90 | 1012.0 |
| 20260905232022 | 23 | 0 | 0.0 | 0.0 | 0.03 | 0.43 | 0.43 | 90 | 1011.6 |
| 20260905231543 | 23 | 0 | 0.0 | 0.0 | 0.03 | 0.43 | 0.43 | 90 | 1011.5 |
| 20260905231020 | 23 | 0 | 0.0 | 0.0 | 0.03 | 0.43 | 0.43 | 90 | 1011.5 |
| 20260905230520 | 24 | 0 | 0.0 | 0.0 | 0.03 | 0.43 | 0.43 | 89 | 1011.6 |
| 20260905230051 | 24 | 0 | 0.0 | 0.0 | 0.03 | 0.43 | 0.43 | 89 | 1011.8 |
| 20260905225523 | 24 | 0 | 0.0 | 0.0 | 0.05 | 0.43 | 0.43 | 87 | 1011.9 |
| 20260905225024 | 24 | 0 | 0.0 | 0.0 | 0.15 | 0.41 | 0.41 | 87 | 1011.6 |
| 20260905224552 | 24 | 0 | 0.0 | 0.0 | 0.38 | 0.41 | 0.41 | 87 | 1011.3 |
| 20260905224024 | 25 | 0 | 0.0 | 0.0 | 0.38 | 0.41 | 0.41 | 86 | 1011.2 |
| 20260905223526 | 25 | 0 | 0.0 | 0.0 | 0.38 | 0.41 | 0.41 | 85 | 1011.0 |
| 20260905223042 | 25 | 0 | 0.0 | 0.0 | 0.38 | 0.41 | 0.41 | 84 | 1011.1 |
| 20260905222526 | 25 | 0 | 0.0 | 0.0 | 0.38 | 0.41 | 0.41 | 82 | 1011.4 |
| 20260905222019 | 26 | 0 | 0.0 | 0.0 | 0.38 | 0.41 | 0.41 | 81 | 1011.5 |
| 20260905221544 | 26 | 0 | 0.0 | 0.0 | 0.41 | 0.41 | 0.41 | 81 | 1011.7 |
| 20260905221021 | 27 | 0 | 0.0 | 0.0 | 0.41 | 0.41 | 0.41 | 80 | 1012.3 |
| 20260905220525 | 27 | 0 | 0.0 | 0.0 | 0.41 | 0.41 | 0.41 | 79 | 1012.3 |
| 20260905220045 | 28 | 0 | 0.0 | 0.0 | 0.41 | 0.41 | 0.41 | 78 | 1012.0 |
| 20260905215526 | 28 | 0 | 0.0 | 0.0 | 0.38 | 0.38 | 0.38 | 75 | 1012.2 |
| 20260905215025 | 29 | 0 | 0.0 | 0.0 | 0.18 | 0.18 | 0.18 | 72 | 1013.3 |
| 20260905214547 | 30 | 0 | 0.0 | 0.0 | 0.03 | 0.03 | 0.03 | 69 | 1012.2 |
| 20260905214022 | 30 | 0 | 0.0 | 0.0 | 0.03 | 0.03 | 0.03 | 67 | 1011.3 |
| 20260905213524 | 31 | 0 | 0.0 | 0.0 | 0.03 | 0.03 | 0.03 | 66 | 1011.1 |
| 20260905213049 | 31 | 0 | 0.0 | 0.0 | 0.03 | 0.03 | 0.03 | 64 | 1011.3 |
| 20260905212519 | 32 | 0 | 0.0 | 0.0 | 0.03 | 0.03 | 0.03 | 64 | 1010.7 |
| 20260905212025 | 33 | 0 | 0.0 | 0.0 | 0.03 | 0.03 | 0.03 | 61 | 1010.6 |
| 20260905211543 | 33 | 0 | 0.0 | 0.0 | 0.00 | 0.00 | 0.00 | 57 | 1010.5 |
| 20260905211024 | 35 | 0 | 0.0 | 0.0 | 0.00 | 0.00 | 0.00 | 56 | 1010.2 |
| 20260905210523 | 35 | 0 | 0.0 | 0.0 | 0.00 | 0.00 | 0.00 | 64 | 1009.6 |
| 20260905210041 | 35 | 0 | 0.0 | 0.0 | 0.00 | 0.00 | 0.00 | 62 | 1009.7 |
| 20260905205522 | 36 | 0 | 0.0 | 0.0 | 0.00 | 0.00 | 0.00 | 62 | 1010.0 |
| 20260905205024 | 36 | 0 | 0.0 | 0.0 | 0.00 | 0.00 | 0.00 | 57 | 1010.0 |
| 20260905204541 | 36 | 0 | 0.0 | 0.0 | 0.00 | 0.00 | 0.00 | 57 | 1010.0 |
| 20260905204023 | 36 | 0 | 0.0 | 0.0 | 0.00 | 0.00 | 0.00 | 56 | 1010.0 |
| 20260905203523 | 37 | 0 | 0.0 | 0.0 | 0.00 | 0.00 | 0.00 | 56 | 1010.1 |
| 20260905203042 | 37 | 0 | 0.0 | 0.0 | 0.00 | 0.00 | 0.00 | 56 | 1010.0 |
| 20260905202523 | 37 | 0 | 0.0 | 0.0 | 0.00 | 0.00 | 0.00 | 55 | 1009.9 |
| 20260905202023 | 37 | 0 | 0.0 | 0.0 | 0.00 | 0.00 | 0.00 | 54 | 1009.9 |
| 20260905201546 | 37 | 0 | 0.0 | 0.0 | 0.00 | 0.00 | 0.00 | 55 | 1010.1 |
| 20260905201033 | 36 | 0 | 0.0 | 0.0 | 0.00 | 0.00 | 0.00 | 55 | 1010.0 |
| 20260905200523 | 37 | 0 | 0.0 | 0.0 | 0.00 | 0.00 | 0.00 | 54 | 1010.0 |
| 20260905200051 | 37 | 0 | 0.0 | 0.0 | 0.00 | 0.00 | 0.00 | 54 | 1010.0 |
| 20260905195531 | 37 | 0 | 0.0 | 0.0 | 0.00 | 0.00 | 0.00 | 56 | 1010.1 |
| 20260905195027 | 37 | 0 | 0.0 | 0.0 | 0.00 | 0.00 | 0.00 | 56 | 1010.1 |
| 20260905194545 | 37 | 0 | 0.0 | 0.0 | 0.00 | 0.00 | 0.00 | 54 | 1010.1 |
| 20260905194019 | 36 | 0 | 0.0 | 0.0 | 0.00 | 0.00 | 0.00 | 54 | 1010.1 |
| 20260905193524 | 36 | 0 | 0.0 | 0.0 | 0.00 | 0.00 | 0.00 | 55 | 1010.2 |
| 20260905193042 | 36 | 0 | 0.0 | 0.0 | 0.00 | 0.00 | 0.00 | 55 | 1010.2 |
| 20260905192521 | 36 | 0 | 0.0 | 0.0 | 0.00 | 0.00 | 0.00 | 56 | 1010.2 |
| 20260905192025 | 36 | 0 | 0.0 | 0.0 | 0.00 | 0.00 | 0.00 | 55 | 1010.3 |
| 20260905191546 | 36 | 0 | 0.0 | 0.0 | 0.00 | 0.00 | 0.00 | 57 | 1010.4 |
| 20260905191025 | 36 | 0 | 0.0 | 0.0 | 0.00 | 0.00 | 0.00 | 56 | 1010.5 |
| 20260905190523 | 36 | 0 | 0.0 | 0.0 | 0.00 | 0.00 | 0.00 | 54 | 1010.6 |
| 20260905190050 | 36 | 0 | 0.0 | 0.0 | 0.00 | 0.00 | 0.00 | 53 | 1010.7 |
| 20260905185524 | 36 | 0 | 0.0 | 0.0 | 0.00 | 0.00 | 0.00 | 53 | 1010.8 |
| 20260905185023 | 35 | 0 | 0.0 | 0.0 | 0.00 | 0.00 | 0.00 | 57 | 1010.9 |
| 20260905184557 | 36 | 0 | 0.0 | 0.0 | 0.00 | 0.00 | 0.00 | 53 | 1011.0 |
| 20260905184019 | 36 | 0 | 0.0 | 0.0 | 0.00 | 0.00 | 0.00 | 54 | 1011.1 |
| 20260905183519 | 36 | 0 | 0.0 | 0.0 | 0.00 | 0.00 | 0.00 | 53 | 1011.4 |
| 20260905183047 | 36 | 0 | 0.0 | 0.0 | 0.00 | 0.00 | 0.00 | 56 | 1011.6 |
| 20260905182523 | 36 | 0 | 0.0 | 0.0 | 0.00 | 0.00 | 0.00 | 56 | 1011.6 |
| 20260905182023 | 36 | 0 | 0.0 | 0.0 | 0.00 | 0.00 | 0.00 | 60 | 1011.7 |
| 20260905181551 | 35 | 0 | 0.0 | 0.0 | 0.00 | 0.00 | 0.00 | 56 | 1011.9 |
| 20260905181023 | 35 | 0 | 0.0 | 0.0 | 0.00 | 0.00 | 0.00 | 58 | 1011.9 |
| 20260905180524 | 35 | 0 | 0.0 | 0.0 | 0.00 | 0.00 | 0.00 | 56 | 1012.0 |
| 20260905180043 | 35 | 0 | 0.0 | 0.0 | 0.00 | 0.00 | 0.00 | 59 | 1012.0 |
| 20260905175531 | 35 | 0 | 0.0 | 0.0 | 0.00 | 0.00 | 0.00 | 56 | 1012.1 |
| 20260905175024 | 35 | 0 | 0.0 | 0.0 | 0.00 | 0.00 | 0.00 | 58 | 1012.2 |
| 20260905174546 | 35 | 0 | 0.0 | 0.0 | 0.00 | 0.00 | 0.00 | 57 | 1012.1 |
| 20260905174024 | 36 | 0 | 0.0 | 0.0 | 0.00 | 0.00 | 0.00 | 59 | 1012.3 |
| 20260905173524 | 35 | 0 | 0.0 | 0.0 | 0.00 | 0.00 | 0.00 | 59 | 1012.3 |
| 20260905173044 | 35 | 0 | 0.0 | 0.0 | 0.00 | 0.00 | 0.00 | 60 | 1012.5 |
| 20260905172524 | 35 | 0 | 0.0 | 0.0 | 0.00 | 0.00 | 0.00 | 60 | 1012.4 |
| 20260905172025 | 35 | 0 | 0.0 | 0.0 | 0.00 | 0.00 | 0.00 | 60 | 1012.5 |
| 20260905171544 | 35 | 0 | 0.0 | 0.0 | 0.00 | 0.00 | 0.00 | 58 | 1012.6 |
| 20260905171024 | 35 | 0 | 0.0 | 0.0 | 0.00 | 0.00 | 0.00 | 59 | 1012.8 |
| 20260905170524 | 35 | 0 | 0.0 | 0.0 | 0.00 | 0.00 | 0.00 | 59 | 1012.9 |
| 20260905170043 | 35 | 0 | 0.0 | 0.0 | 0.00 | 0.00 | 0.00 | 62 | 1013.0 |
| 20260905165523 | 34 | 0 | 0.0 | 0.0 | 0.00 | 0.00 | 0.00 | 61 | 1013.0 |
| 20260905165025 | 34 | 0 | 0.0 | 0.0 | 0.00 | 0.00 | 0.00 | 62 | 1013.2 |
| 20260905164544 | 34 | 0 | 0.0 | 0.0 | 0.00 | 0.00 | 0.00 | 61 | 1013.2 |
| 20260905164019 | 33 | 0 | 0.0 | 0.0 | 0.00 | 0.00 | 0.00 | 63 | 1013.3 |
| 20260905163521 | 33 | 0 | 0.0 | 0.0 | 0.00 | 0.00 | 0.00 | 63 | 1013.2 |
| 20260905163044 | 33 | 0 | 0.0 | 0.0 | 0.00 | 0.00 | 0.00 | 63 | 1013.3 |
| 20260905162524 | 33 | 0 | 0.0 | 0.0 | 0.00 | 0.00 | 0.00 | 62 | 1013.4 |
| 20260905162024 | 33 | 0 | 0.0 | 0.0 | 0.00 | 0.00 | 0.00 | 62 | 1013.4 |
| 20260905161542 | 33 | 0 | 0.0 | 0.0 | 0.00 | 0.00 | 0.00 | 64 | 1013.5 |
| 20260905161024 | 33 | 0 | 0.0 | 0.0 | 0.00 | 0.00 | 0.00 | 63 | 1013.5 |
| 20260905160523 | 33 | 0 | 0.0 | 0.0 | 0.00 | 0.00 | 0.00 | 65 | 1013.6 |
| 20260905160045 | 33 | 0 | 0.0 | 0.0 | 0.00 | 0.00 | 0.00 | 64 | 1013.7 |
| 20260905155522 | 33 | 0 | 0.0 | 0.0 | 0.00 | 0.00 | 0.00 | 65 | 1013.7 |
| 20260905155022 | 33 | 0 | 0.0 | 0.0 | 0.00 | 0.00 | 0.00 | 65 | 1013.7 |
| 20260905154544 | 33 | 0 | 0.0 | 0.0 | 0.00 | 0.00 | 0.00 | 64 | 1013.8 |
| 20260905154025 | 33 | 0 | 0.0 | 0.0 | 0.00 | 0.00 | 0.00 | 65 | 1014.0 |
| 20260905153525 | 33 | 0 | 0.0 | 0.0 | 0.00 | 0.00 | 0.00 | 66 | 1014.0 |
| 20260905153054 | 33 | 0 | 0.0 | 0.0 | 0.00 | 0.00 | 0.00 | 67 | 1014.0 |
| 20260905152525 | 33 | 0 | 0.0 | 0.0 | 0.00 | 0.00 | 0.00 | 66 | 1014.1 |
| 20260905152024 | 33 | 0 | 0.0 | 0.0 | 0.00 | 0.00 | 0.00 | 67 | 1014.1 |
| 20260905151547 | 33 | 0 | 0.0 | 0.0 | 0.00 | 0.00 | 0.00 | 67 | 1014.1 |
| 20260905151019 | 32 | 0 | 0.0 | 0.0 | 0.00 | 0.00 | 0.00 | 69 | 1014.2 |
| 20260905150519 | 32 | 0 | 0.0 | 0.0 | 0.00 | 0.00 | 0.00 | 67 | 1014.3 |
| 20260905150046 | 32 | 0 | 0.0 | 0.0 | 0.00 | 0.00 | 0.00 | 68 | 1014.4 |
| 20260905145522 | 32 | 0 | 0.0 | 0.0 | 0.00 | 0.00 | 0.00 | 69 | 1014.4 |
| 20260905145022 | 32 | 0 | 0.0 | 0.0 | 0.00 | 0.00 | 0.00 | 69 | 1014.4 |
| 20260905144547 | 32 | 0 | 0.0 | 0.0 | 0.00 | 0.00 | 0.00 | 71 | 1014.4 |
| 20260905144022 | 32 | 0 | 0.0 | 0.0 | 0.00 | 0.00 | 0.00 | 72 | 1014.5 |
| 20260905143519 | 32 | 0 | 0.0 | 0.0 | 0.00 | 0.00 | 0.00 | 72 | 1014.7 |
| 20260905143043 | 31 | 0 | 0.0 | 0.0 | 0.00 | 0.00 | 0.00 | 72 | 1014.6 |
| 20260905142525 | 31 | 0 | 0.0 | 0.0 | 0.00 | 0.00 | 0.00 | 73 | 1014.6 |
| 20260905142024 | 31 | 0 | 0.0 | 0.0 | 0.00 | 0.00 | 0.00 | 73 | 1014.5 |
| 20260905141546 | 31 | 0 | 0.0 | 0.0 | 0.00 | 0.00 | 0.00 | 75 | 1014.7 |
| 20260905141023 | 31 | 0 | 0.0 | 0.0 | 0.00 | 0.00 | 0.00 | 75 | 1014.6 |
| 20260905140521 | 30 | 0 | 0.0 | 0.0 | 0.00 | 0.00 | 0.00 | 76 | 1014.6 |
| 20260905140046 | 30 | 0 | 0.0 | 0.0 | 0.00 | 0.00 | 0.00 | 78 | 1014.5 |
| 20260905135521 | 30 | 0 | 0.0 | 0.0 | 0.00 | 0.00 | 0.00 | 79 | 1014.6 |
| 20260905135023 | 29 | 0 | 0.0 | 0.0 | 0.00 | 0.00 | 0.00 | 79 | 1014.6 |
| 20260905134543 | 29 | 0 | 0.0 | 0.0 | 0.00 | 0.00 | 0.00 | 80 | 1014.7 |
| 20260905134024 | 28 | 0 | 0.0 | 0.0 | 0.00 | 0.00 | 0.00 | 82 | 1014.7 |
| 20260905133525 | 28 | 0 | 0.0 | 0.0 | 0.00 | 0.00 | 0.00 | 83 | 1014.7 |
| 20260905133042 | 28 | 0 | 0.0 | 0.0 | 0.00 | 0.00 | 0.00 | 85 | 1014.7 |
| 20260905132524 | 28 | 0 | 0.0 | 0.0 | 0.00 | 0.00 | 0.00 | 87 | 1014.7 |
| 20260905132024 | 27 | 0 | 0.0 | 0.0 | 0.00 | 0.00 | 0.00 | 88 | 1014.7 |
| 20260905131559 | 27 | 0 | 0.0 | 0.0 | 0.00 | 0.00 | 0.00 | 91 | 1014.7 |
| 20260905131023 | 26 | 0 | 0.0 | 0.0 | 0.00 | 0.00 | 0.00 | 92 | 1014.9 |
| 20260905130522 | 26 | 0 | 0.0 | 0.0 | 0.00 | 0.00 | 0.00 | 93 | 1014.9 |
| 20260905130049 | 26 | 0 | 0.0 | 0.0 | 0.00 | 0.00 | 0.00 | 93 | 1014.9 |
| 20260905125521 | 26 | 0 | 0.0 | 0.0 | 0.00 | 0.00 | 0.00 | 94 | 1014.9 |
| 20260905125028 | 25 | 0 | 0.0 | 0.0 | 0.00 | 0.00 | 0.00 | 95 | 1015.0 |
| 20260905124544 | 25 | 0 | 0.0 | 0.0 | 0.00 | 0.00 | 0.00 | 95 | 1015.0 |
| 20260905124025 | 25 | 0 | 0.0 | 0.0 | 0.00 | 0.00 | 0.00 | 95 | 1015.0 |
| 20260905123524 | 25 | 0 | 0.0 | 0.0 | 0.00 | 0.00 | 0.00 | 95 | 1014.9 |
| 20260905123043 | 25 | 0 | 0.0 | 0.0 | 0.00 | 0.00 | 0.00 | 95 | 1014.9 |
| 20260905122525 | 24 | 0 | 0.0 | 0.0 | 0.00 | 0.00 | 0.00 | 95 | 1014.9 |
| 20260905122023 | 24 | 0 | 0.0 | 0.0 | 0.00 | 0.00 | 0.00 | 95 | 1014.7 |
| 20260905121542 | 24 | 0 | 0.0 | 0.0 | 0.00 | 0.00 | 0.00 | 95 | 1014.7 |
| 20260905121020 | 24 | 0 | 0.0 | 0.0 | 0.00 | 0.00 | 0.00 | 95 | 1014.7 |
| 20260905120527 | 24 | 0 | 0.0 | 0.0 | 0.00 | 0.00 | 0.00 | 95 | 1014.6 |
| 20260905120044 | 24 | 0 | 0.0 | 0.0 | 0.00 | 0.00 | 0.00 | 95 | 1014.6 |
| 20260905115528 | 24 | 0 | 0.0 | 0.0 | 0.00 | 0.00 | 0.00 | 94 | 1014.6 |
| 20260905115025 | 24 | 0 | 0.0 | 0.0 | 0.00 | 0.00 | 0.00 | 94 | 1014.5 |
| 20260905114544 | 24 | 0 | 0.0 | 0.0 | 0.00 | 0.00 | 0.00 | 94 | 1014.6 |
| 20260905114021 | 23 | 0 | 0.0 | 0.0 | 0.00 | 0.00 | 0.00 | 94 | 1014.5 |
| 20260905113555 | 23 | 0 | 0.0 | 0.0 | 0.00 | 0.00 | 0.00 | 94 | 1014.5 |
| 20260905113043 | 23 | 0 | 0.0 | 0.0 | 0.00 | 0.00 | 0.00 | 94 | 1014.4 |
| 20260905112525 | 23 | 0 | 0.0 | 0.0 | 0.00 | 0.00 | 0.00 | 94 | 1014.4 |
| 20260905112024 | 23 | 0 | 0.0 | 0.0 | 0.00 | 0.00 | 0.00 | 94 | 1014.3 |
| 20260905111602 | 23 | 0 | 0.0 | 0.0 | 0.00 | 0.00 | 0.00 | 93 | 1014.3 |
| 20260905111024 | 23 | 0 | 0.0 | 0.0 | 0.00 | 0.00 | 0.00 | 93 | 1014.3 |
| 20260905110524 | 23 | 0 | 0.0 | 0.0 | 0.00 | 0.00 | 0.00 | 93 | 1014.2 |
| 20260905110044 | 24 | 0 | 0.0 | 0.0 | 0.00 | 0.00 | 0.00 | 93 | 1014.1 |
| 20260905105524 | 24 | 0 | 0.0 | 0.0 | 0.00 | 0.00 | 0.00 | 93 | 1014.1 |
| 20260905105019 | 24 | 0 | 0.0 | 0.0 | 0.00 | 0.00 | 0.00 | 93 | 1014.0 |
| 20260905104545 | 24 | 0 | 0.0 | 0.0 | 0.00 | 0.00 | 0.00 | 93 | 1014.0 |
| 20260905104021 | 24 | 0 | 0.0 | 0.0 | 0.00 | 0.00 | 0.00 | 93 | 1014.0 |
| 20260905103523 | 24 | 0 | 0.0 | 0.0 | 0.00 | 0.00 | 0.00 | 93 | 1014.0 |
| 20260905103042 | 24 | 0 | 0.0 | 0.0 | 0.00 | 0.00 | 0.00 | 93 | 1013.9 |
| 20260905102525 | 24 | 0 | 0.0 | 0.0 | 0.00 | 0.00 | 0.00 | 93 | 1013.9 |
| 20260905102024 | 24 | 0 | 0.0 | 0.0 | 0.00 | 0.00 | 0.00 | 93 | 1013.9 |
| 20260905101547 | 24 | 0 | 0.0 | 0.0 | 0.00 | 0.00 | 0.00 | 93 | 1013.8 |
| 20260905101023 | 24 | 0 | 0.0 | 0.0 | 0.00 | 0.00 | 0.00 | 93 | 1013.8 |
| 20260905100529 | 24 | 0 | 0.0 | 0.0 | 0.00 | 0.00 | 0.00 | 93 | 1013.9 |
| 20260905100046 | 24 | 0 | 0.0 | 0.0 | 0.00 | 0.00 | 0.00 | 93 | 1013.9 |
| 20260905095524 | 24 | 0 | 0.0 | 0.0 | 0.00 | 0.00 | 0.00 | 93 | 1013.8 |
| 20260905095024 | 24 | 0 | 0.0 | 0.0 | 0.00 | 0.00 | 0.00 | 93 | 1013.9 |
| 20260905094542 | 24 | 0 | 0.0 | 0.0 | 0.00 | 0.00 | 0.00 | 93 | 1013.9 |
| 20260905094021 | 24 | 0 | 0.0 | 0.0 | 0.00 | 0.00 | 0.00 | 93 | 1014.0 |
| 20260905093521 | 24 | 0 | 0.0 | 0.0 | 0.00 | 0.00 | 0.00 | 93 | 1013.9 |
| 20260905093043 | 24 | 0 | 0.0 | 0.0 | 0.00 | 0.00 | 0.00 | 93 | 1013.8 |
| 20260905092522 | 24 | 0 | 0.0 | 0.0 | 0.00 | 0.00 | 0.00 | 93 | 1013.8 |
| 20260905092028 | 24 | 0 | 0.0 | 0.0 | 0.00 | 0.00 | 0.00 | 92 | 1013.7 |
| 20260905091543 | 24 | 0 | 0.0 | 0.0 | 0.00 | 0.00 | 0.00 | 92 | 1013.7 |
| 20260905091024 | 24 | 0 | 0.0 | 0.0 | 0.00 | 0.00 | 0.00 | 92 | 1013.9 |
| 20260905090526 | 25 | 0 | 0.0 | 0.0 | 0.00 | 0.00 | 0.00 | 92 | 1013.9 |
| 20260905090046 | 25 | 0 | 0.0 | 0.0 | 0.00 | 0.00 | 0.00 | 92 | 1014.0 |
| 20260905085522 | 25 | 0 | 0.0 | 0.0 | 0.00 | 0.00 | 0.00 | 92 | 1014.0 |
| 20260905085022 | 25 | 0 | 0.0 | 0.0 | 0.00 | 0.00 | 0.00 | 92 | 1014.2 |
| 20260905084542 | 25 | 0 | 0.0 | 0.0 | 0.00 | 0.00 | 0.00 | 92 | 1014.1 |
| 20260905084025 | 25 | 0 | 0.0 | 0.0 | 0.00 | 0.00 | 0.00 | 92 | 1014.2 |
| 20260905083527 | 25 | 0 | 0.0 | 0.0 | 0.00 | 0.00 | 0.00 | 92 | 1014.1 |
| 20260905083042 | 25 | 0 | 0.0 | 0.0 | 0.00 | 0.00 | 0.00 | 92 | 1014.1 |
| 20260905082524 | 25 | 0 | 0.0 | 0.0 | 0.00 | 0.00 | 0.00 | 92 | 1014.1 |
| 20260905082025 | 25 | 0 | 0.0 | 0.0 | 0.00 | 0.00 | 0.00 | 91 | 1014.1 |
| 20260905081548 | 25 | 0 | 0.0 | 0.0 | 0.00 | 0.00 | 0.00 | 91 | 1014.1 |
| 20260905081025 | 25 | 0 | 0.0 | 0.0 | 0.00 | 0.00 | 0.00 | 91 | 1014.1 |
| 20260905080523 | 25 | 0 | 0.0 | 0.0 | 0.00 | 0.00 | 0.00 | 91 | 1014.1 |
| 20260905080042 | 25 | 0 | 0.0 | 0.0 | 0.00 | 0.00 | 0.00 | 91 | 1014.0 |
| 20260905075525 | 25 | 0 | 0.0 | 0.0 | 0.00 | 0.00 | 0.00 | 91 | 1014.0 |
| 20260905075023 | 25 | 0 | 0.0 | 0.0 | 0.00 | 0.00 | 0.00 | 91 | 1014.0 |
| 20260905074551 | 25 | 0 | 0.0 | 0.0 | 0.00 | 0.00 | 0.00 | 91 | 1014.1 |
| 20260905074025 | 25 | 0 | 0.0 | 0.0 | 0.00 | 0.00 | 0.00 | 91 | 1014.1 |
| 20260905073526 | 25 | 0 | 0.0 | 0.0 | 0.00 | 0.00 | 0.00 | 91 | 1014.0 |
| 20260905073058 | 25 | 0 | 0.0 | 0.0 | 0.00 | 0.00 | 0.00 | 91 | 1014.0 |
| 20260905072524 | 25 | 0 | 0.0 | 0.0 | 0.00 | 0.00 | 0.00 | 90 | 1014.1 |
| 20260905072022 | 25 | 0 | 0.0 | 0.0 | 0.00 | 0.00 | 0.00 | 90 | 1014.0 |
| 20260905071546 | 25 | 0 | 0.0 | 0.0 | 0.00 | 0.00 | 0.00 | 90 | 1013.9 |
| 20260905071023 | 25 | 0 | 0.0 | 0.0 | 0.00 | 0.00 | 0.00 | 90 | 1014.1 |
| 20260905070523 | 25 | 0 | 0.0 | 0.0 | 0.00 | 0.00 | 0.00 | 90 | 1014.1 |
| 20260905070044 | 25 | 0 | 0.0 | 0.0 | 0.00 | 0.00 | 0.00 | 89 | 1014.0 |
| 20260905065524 | 25 | 0 | 0.0 | 0.0 | 0.00 | 0.00 | 0.00 | 89 | 1014.0 |
| 20260905065027 | 25 | 0 | 0.0 | 0.0 | 0.00 | 0.00 | 0.00 | 89 | 1014.2 |
| 20260905064542 | 25 | 0 | 0.0 | 0.0 | 0.00 | 0.00 | 0.00 | 89 | 1014.1 |
| 20260905064024 | 25 | 0 | 0.0 | 0.0 | 0.00 | 0.00 | 0.00 | 89 | 1014.2 |
| 20260905063523 | 25 | 0 | 0.0 | 0.0 | 0.00 | 0.00 | 0.00 | 89 | 1014.2 |
| 20260905063044 | 25 | 0 | 0.0 | 0.0 | 0.00 | 0.00 | 0.00 | 89 | 1014.1 |
| 20260905062525 | 25 | 0 | 0.0 | 0.0 | 0.00 | 0.00 | 0.00 | 88 | 1014.2 |
| 20260905062023 | 25 | 0 | 0.0 | 0.0 | 0.00 | 0.00 | 0.00 | 88 | 1014.2 |
| 20260905061546 | 26 | 0 | 0.0 | 0.0 | 0.00 | 0.00 | 0.00 | 88 | 1014.2 |
| 20260905061022 | 26 | 0 | 0.0 | 0.0 | 0.00 | 0.00 | 0.00 | 88 | 1014.4 |
| 20260905060521 | 26 | 0 | 0.0 | 0.0 | 0.00 | 0.00 | 0.00 | 87 | 1014.4 |
| 20260905060043 | 26 | 0 | 0.0 | 0.0 | 0.00 | 0.00 | 0.00 | 87 | 1014.5 |
| 20260905055522 | 26 | 0 | 0.0 | 0.0 | 0.00 | 0.00 | 0.00 | 87 | 1014.6 |
| 20260905055023 | 26 | 0 | 0.0 | 0.0 | 0.00 | 0.00 | 0.00 | 87 | 1014.6 |
| 20260905054546 | 26 | 0 | 0.0 | 0.0 | 0.00 | 0.00 | 0.00 | 87 | 1014.6 |
| 20260905054023 | 26 | 0 | 0.0 | 0.0 | 0.00 | 0.00 | 0.00 | 87 | 1014.9 |
| 20260905053524 | 26 | 0 | 0.0 | 0.0 | 0.00 | 0.00 | 0.00 | 87 | 1014.9 |
| 20260905053110 | 26 | 0 | 0.0 | 0.0 | 0.00 | 0.00 | 0.00 | 87 | 1014.9 |
| 20260905052523 | 26 | 0 | 0.0 | 0.0 | 0.00 | 0.00 | 0.00 | 87 | 1014.9 |
| 20260905052024 | 26 | 0 | 0.0 | 0.0 | 0.00 | 0.00 | 0.00 | 87 | 1014.9 |
| 20260905051544 | 26 | 0 | 0.0 | 0.0 | 0.00 | 0.00 | 0.00 | 87 | 1015.0 |
| 20260905051023 | 26 | 0 | 0.0 | 0.0 | 0.00 | 0.00 | 0.00 | 87 | 1015.1 |
| 20260905050521 | 26 | 0 | 0.0 | 0.0 | 0.00 | 0.00 | 0.00 | 86 | 1015.1 |
| 20260905050042 | 26 | 0 | 0.0 | 0.0 | 0.00 | 0.00 | 0.00 | 86 | 1015.2 |
| 20260905045524 | 26 | 0 | 0.0 | 0.0 | 0.00 | 0.00 | 0.00 | 86 | 1015.2 |
| 20260905045024 | 26 | 0 | 0.0 | 0.0 | 0.00 | 0.00 | 0.00 | 86 | 1015.2 |
| 20260905044545 | 26 | 0 | 0.0 | 0.0 | 0.00 | 0.00 | 0.00 | 86 | 1015.3 |
| 20260905044023 | 26 | 0 | 0.0 | 0.0 | 0.00 | 0.00 | 0.00 | 85 | 1015.3 |
| 20260905043522 | 26 | 0 | 0.0 | 0.0 | 0.00 | 0.00 | 0.00 | 86 | 1015.3 |
| 20260905043044 | 26 | 0 | 0.0 | 0.0 | 0.00 | 0.00 | 0.00 | 85 | 1015.2 |
| 20260905042525 | 27 | 0 | 0.0 | 0.0 | 0.00 | 0.00 | 0.00 | 85 | 1015.4 |
| 20260905042024 | 27 | 0 | 0.0 | 0.0 | 0.00 | 0.00 | 0.00 | 85 | 1015.5 |
| 20260905041546 | 27 | 0 | 0.0 | 0.0 | 0.00 | 0.00 | 0.00 | 85 | 1015.5 |
| 20260905041019 | 27 | 0 | 0.0 | 0.0 | 0.00 | 0.00 | 0.00 | 85 | 1015.3 |
| 20260905040521 | 27 | 0 | 0.0 | 0.0 | 0.00 | 0.00 | 0.00 | 85 | 1015.5 |
| 20260905040044 | 27 | 0 | 0.0 | 0.0 | 0.00 | 0.00 | 0.00 | 85 | 1015.5 |
| 20260905035523 | 27 | 0 | 0.0 | 0.0 | 0.00 | 0.00 | 0.00 | 84 | 1015.4 |
| 20260905035024 | 27 | 0 | 0.0 | 0.0 | 0.00 | 0.00 | 0.00 | 85 | 1015.5 |
| 20260905034547 | 27 | 0 | 0.0 | 0.0 | 0.00 | 0.00 | 0.00 | 84 | 1015.4 |
| 20260905034023 | 27 | 0 | 0.0 | 0.0 | 0.00 | 0.00 | 0.00 | 84 | 1015.4 |
| 20260905033527 | 27 | 0 | 0.0 | 0.0 | 0.00 | 0.00 | 0.00 | 84 | 1015.5 |
| 20260905033055 | 27 | 0 | 0.0 | 0.0 | 0.00 | 0.00 | 0.00 | 84 | 1015.5 |
| 20260905032527 | 27 | 0 | 0.0 | 0.0 | 0.00 | 0.00 | 0.00 | 83 | 1015.5 |
| 20260905032025 | 27 | 0 | 0.0 | 0.0 | 0.00 | 0.00 | 0.00 | 83 | 1015.6 |
| 20260905031545 | 27 | 0 | 0.0 | 0.0 | 0.00 | 0.00 | 0.00 | 83 | 1015.6 |